Time;durP1;ratioP1;P1;durP2;ratioP2;P2;SDS_P1;SDS_P2;PMS_P1;PMS_P2;Temp;Humidity;BMP_temperature;BMP_pressure;BME280_temperature;BME280_humidity;BME280_pressure;Samples;Min_cycle;Max_cycle;Signal;HPM_P1;HPM_P2
2022/12/31 00:01:07;;;;;;;11.75;4.10;;;;;;;;;;5046012;28;20049;-79
2022/12/31 00:03:38;;;;;;;9.23;3.35;;;;;;;;;;5041050;28;20065;-79
2022/12/31 00:06:16;;;;;;;13.90;4.60;;;;;;;;;;5052273;28;20661;-79
2022/12/31 00:08:46;;;;;;;14.38;4.50;;;;;;;;;;5047731;28;20084;-79
2022/12/31 00:11:13;;;;;;;10.98;4.05;;;;;;;;;;5078253;28;20050;-79
2022/12/31 00:13:42;;;;;;;10.63;4.18;;;;;;;;;;5043257;28;20053;-79
2022/12/31 00:16:10;;;;;;;10.25;3.97;;;;;;;;;;5054347;28;20049;-80
2022/12/31 00:18:42;;;;;;;10.57;4.10;;;;;;;;;;5050282;28;20057;-79
2022/12/31 00:21:09;;;;;;;14.25;4.30;;;;;;;;;;5061030;28;20054;-79
2022/12/31 00:23:36;;;;;;;12.82;4.65;;;;;;;;;;5042637;28;20057;-80
2022/12/31 00:26:14;;;;;;;20.70;5.97;;;;;;;;;;5044367;28;20046;-79
2022/12/31 00:28:41;;;;;;;7.85;3.95;;;;;;;;;;5046579;28;20946;-79
2022/12/31 00:31:12;;;;;;;9.48;3.63;;;;;;;;;;5045289;28;20582;-79
2022/12/31 00:33:42;;;;;;;10.13;3.65;;;;;;;;;;5046276;28;20041;-79
2022/12/31 00:36:10;;;;;;;7.55;2.60;;;;;;;;;;5040120;28;20106;-80
2022/12/31 00:38:38;;;;;;;3.35;2.17;;;;;;;;;;5039885;28;20117;-79
2022/12/31 00:41:14;;;;;;;5.18;2.53;;;;;;;;;;5039379;28;20062;-79
2022/12/31 00:43:41;;;;;;;4.95;2.33;;;;;;;;;;5045243;28;20068;-80
2022/12/31 00:46:09;;;;;;;5.30;2.10;;;;;;;;;;5049022;28;20853;-79
2022/12/31 00:48:36;;;;;;;5.38;2.40;;;;;;;;;;5052178;28;20977;-80
2022/12/31 00:51:05;;;;;;;6.78;2.35;;;;;;;;;;5052582;28;20041;-78
2022/12/31 00:53:32;;;;;;;3.22;1.90;;;;;;;;;;5043455;28;20132;-80
2022/12/31 00:56:10;;;;;;;5.28;2.58;;;;;;;;;;5045334;28;20049;-79
2022/12/31 00:58:41;;;;;;;4.38;2.65;;;;;;;;;;5052684;28;20050;-79
2022/12/31 01:01:19;;;;;;;4.68;2.05;;;;;;;;;;5046155;28;20120;-81
2022/12/31 01:03:48;;;;;;;12.73;2.70;;;;;;;;;;5050788;28;20045;-79
2022/12/31 01:06:15;;;;;;;6.22;2.55;;;;;;;;;;5041804;28;20049;-79
2022/12/31 01:08:43;;;;;;;8.93;3.08;;;;;;;;;;5058931;28;20091;-80
2022/12/31 01:11:23;;;;;;;6.57;3.70;;;;;;;;;;5053939;28;20053;-79
2022/12/31 01:14:13;;;;;;;5.75;2.85;;;;;;;;;;5041666;28;20064;-80
2022/12/31 01:16:42;;;;;;;10.07;2.85;;;;;;;;;;5051840;28;20065;-79
2022/12/31 01:19:12;;;;;;;12.38;3.55;;;;;;;;;;5056010;28;20042;-80
2022/12/31 01:21:40;;;;;;;9.48;3.42;;;;;;;;;;5053512;28;20231;-80
2022/12/31 01:24:08;;;;;;;7.05;3.63;;;;;;;;;;5054172;28;20041;-79
2022/12/31 01:26:35;;;;;;;17.20;4.15;;;;;;;;;;5050446;28;21317;-80
2022/12/31 01:29:03;;;;;;;16.98;4.00;;;;;;;;;;5054736;28;20094;-79
2022/12/31 01:31:33;;;;;;;9.45;4.22;;;;;;;;;;5063282;28;20049;-80
2022/12/31 01:34:00;;;;;;;11.20;4.45;;;;;;;;;;5053678;28;20061;-80
2022/12/31 01:36:29;;;;;;;8.25;3.90;;;;;;;;;;5057289;28;20055;-80
2022/12/31 01:38:57;;;;;;;9.43;4.15;;;;;;;;;;5061798;28;20059;-80
2022/12/31 01:41:26;;;;;;;11.27;4.30;;;;;;;;;;5062760;28;20145;-80
2022/12/31 01:44:17;;;;;;;8.95;4.43;;;;;;;;;;5057510;28;20104;-81
2022/12/31 01:46:46;;;;;;;8.73;4.45;;;;;;;;;;5054727;28;20053;-80
2022/12/31 01:49:16;;;;;;;13.77;4.32;;;;;;;;;;5062478;28;20091;-82
2022/12/31 01:51:46;;;;;;;12.73;4.55;;;;;;;;;;5052105;28;20063;-79
2022/12/31 01:54:15;;;;;;;6.82;3.65;;;;;;;;;;5055941;28;20117;-81
2022/12/31 01:56:47;;;;;;;10.05;4.07;;;;;;;;;;5056562;28;20080;-80
2022/12/31 01:59:16;;;;;;;9.05;3.70;;;;;;;;;;5063699;28;20121;-79
2022/12/31 02:01:46;;;;;;;9.63;3.70;;;;;;;;;;5061756;28;20084;-80
2022/12/31 02:04:16;;;;;;;16.17;4.30;;;;;;;;;;5060709;28;20053;-80
2022/12/31 02:06:53;;;;;;;6.25;2.83;;;;;;;;;;5051891;28;20042;-80
2022/12/31 02:09:21;;;;;;;13.75;3.47;;;;;;;;;;5061437;28;20058;-80
2022/12/31 02:11:56;;;;;;;5.60;2.15;;;;;;;;;;5058728;28;20108;-80
2022/12/31 02:14:25;;;;;;;9.48;3.28;;;;;;;;;;5041197;28;20112;-80
2022/12/31 02:16:55;;;;;;;6.80;2.97;;;;;;;;;;5041161;28;20048;-80
2022/12/31 02:19:22;;;;;;;14.27;3.45;;;;;;;;;;5053486;28;20073;-79
2022/12/31 02:22:04;;;;;;;10.30;3.40;;;;;;;;;;5053359;28;20056;-80
2022/12/31 02:24:34;;;;;;;10.18;3.10;;;;;;;;;;5049499;28;20045;-80
2022/12/31 02:27:22;;;;;;;12.20;2.88;;;;;;;;;;5072205;28;20061;-80
2022/12/31 02:30:07;;;;;;;10.70;2.58;;;;;;;;;;5048646;28;20106;-80
2022/12/31 02:32:49;;;;;;;9.82;2.22;;;;;;;;;;5060032;28;20615;-79
2022/12/31 02:35:41;;;;;;;7.75;1.98;;;;;;;;;;5055381;28;20048;-80
2022/12/31 02:38:12;;;;;;;6.00;1.45;;;;;;;;;;5055670;28;20113;-80
2022/12/31 02:40:39;;;;;;;9.23;1.70;;;;;;;;;;5049869;28;20045;-80
2022/12/31 02:43:06;;;;;;;8.80;1.50;;;;;;;;;;5047389;28;20172;-80
2022/12/31 02:45:37;;;;;;;5.68;1.48;;;;;;;;;;5054945;28;20057;-80
2022/12/31 02:48:22;;;;;;;7.78;1.40;;;;;;;;;;5048305;28;20819;-80
2022/12/31 02:51:10;;;;;;;7.82;1.52;;;;;;;;;;5084994;28;20630;-80
2022/12/31 02:53:43;;;;;;;7.32;1.42;;;;;;;;;;5078690;28;20062;-80
2022/12/31 02:56:34;;;;;;;10.60;1.60;;;;;;;;;;5048136;28;20052;-80
2022/12/31 03:02:12;;;;;;;5.35;1.40;;;;;;;;;;5048186;28;20888;-80
2022/12/31 03:04:42;;;;;;;6.85;1.42;;;;;;;;;;5059102;28;20045;-80
2022/12/31 03:07:14;;;;;;;5.60;1.20;;;;;;;;;;5050513;28;20073;-79
2022/12/31 03:09:41;;;;;;;4.45;1.00;;;;;;;;;;5048142;28;20105;-80
2022/12/31 03:14:55;;;;;;;5.95;1.00;;;;;;;;;;5057546;28;20049;-80
2022/12/31 03:17:22;;;;;;;3.80;1.08;;;;;;;;;;5057027;28;20048;-80
2022/12/31 03:22:39;;;;;;;7.55;1.45;;;;;;;;;;5044673;28;20787;-80
2022/12/31 03:27:59;;;;;;;6.97;1.35;;;;;;;;;;5055950;28;20049;-81
2022/12/31 03:30:27;;;;;;;8.18;1.40;;;;;;;;;;5048229;28;20046;-80
2022/12/31 03:32:57;;;;;;;8.07;1.25;;;;;;;;;;5047700;28;20050;-79
2022/12/31 03:35:26;;;;;;;17.50;1.73;;;;;;;;;;5044758;28;20061;-81
2022/12/31 03:37:53;;;;;;;5.53;1.50;;;;;;;;;;5049700;28;20535;-81
2022/12/31 03:40:22;;;;;;;2.65;1.70;;;;;;;;;;5060182;28;20057;-81
2022/12/31 03:42:49;;;;;;;7.55;1.73;;;;;;;;;;5051852;28;20050;-81
2022/12/31 03:45:18;;;;;;;4.07;1.42;;;;;;;;;;5052409;28;20050;-81
2022/12/31 03:47:45;;;;;;;6.05;1.83;;;;;;;;;;5083322;28;20073;-81
2022/12/31 03:50:14;;;;;;;5.93;1.77;;;;;;;;;;5053072;28;20057;-81
2022/12/31 03:52:42;;;;;;;8.25;2.05;;;;;;;;;;5047875;28;20044;-81
2022/12/31 03:55:09;;;;;;;12.68;2.15;;;;;;;;;;5054941;28;20064;-81
2022/12/31 03:57:42;;;;;;;6.28;1.85;;;;;;;;;;5041930;28;20049;-81
2022/12/31 04:00:11;;;;;;;2.78;1.35;;;;;;;;;;5050870;28;20058;-81
2022/12/31 04:02:38;;;;;;;10.02;2.08;;;;;;;;;;5060271;28;20108;-81
2022/12/31 04:05:09;;;;;;;4.47;1.40;;;;;;;;;;5067429;28;20034;-81
2022/12/31 04:07:37;;;;;;;3.38;1.33;;;;;;;;;;5047704;28;20612;-81
2022/12/31 04:10:08;;;;;;;9.32;1.67;;;;;;;;;;5044949;28;20053;-81
2022/12/31 04:12:35;;;;;;;8.27;1.60;;;;;;;;;;5047575;28;20057;-81
2022/12/31 04:15:04;;;;;;;10.38;2.20;;;;;;;;;;5067044;28;20046;-81
2022/12/31 04:17:31;;;;;;;4.88;1.80;;;;;;;;;;5052199;28;20356;-81
2022/12/31 04:20:00;;;;;;;8.82;1.90;;;;;;;;;;5042048;28;20046;-80
2022/12/31 04:22:28;;;;;;;7.30;2.20;;;;;;;;;;5050051;28;20831;-80
2022/12/31 04:24:56;;;;;;;6.22;2.40;;;;;;;;;;5052665;28;20033;-80
2022/12/31 04:27:23;;;;;;;7.55;2.35;;;;;;;;;;5050059;28;20049;-80
2022/12/31 04:29:50;;;;;;;17.48;3.05;;;;;;;;;;5044857;28;20177;-80
2022/12/31 04:32:17;;;;;;;8.30;2.55;;;;;;;;;;5046554;28;20132;-80
2022/12/31 04:34:44;;;;;;;9.02;3.17;;;;;;;;;;5046972;28;20046;-81
2022/12/31 04:37:12;;;;;;;19.15;3.75;;;;;;;;;;5047475;28;21081;-80
2022/12/31 04:39:39;;;;;;;14.85;4.07;;;;;;;;;;5062608;28;20052;-80
2022/12/31 04:42:06;;;;;;;28.15;4.85;;;;;;;;;;5049064;28;20151;-79
2022/12/31 04:44:34;;;;;;;13.25;4.07;;;;;;;;;;5049361;28;20097;-80
2022/12/31 04:47:02;;;;;;;10.77;4.00;;;;;;;;;;5084404;28;20049;-80
2022/12/31 04:49:30;;;;;;;12.45;4.25;;;;;;;;;;5049728;28;20133;-80
2022/12/31 04:51:57;;;;;;;41.85;5.57;;;;;;;;;;5049933;28;20266;-80
2022/12/31 04:54:24;;;;;;;23.77;4.55;;;;;;;;;;5053296;28;20037;-80
2022/12/31 04:56:51;;;;;;;28.23;4.35;;;;;;;;;;5052221;28;20113;-80
2022/12/31 04:59:18;;;;;;;10.30;3.45;;;;;;;;;;5048345;28;20519;-80
2022/12/31 05:01:45;;;;;;;12.73;3.58;;;;;;;;;;5050944;28;20048;-80
2022/12/31 05:04:13;;;;;;;27.08;4.28;;;;;;;;;;5051856;28;20149;-80
2022/12/31 05:06:40;;;;;;;8.82;3.28;;;;;;;;;;5053677;28;20069;-80
2022/12/31 05:09:07;;;;;;;11.80;3.50;;;;;;;;;;5058870;28;20050;-80
2022/12/31 05:11:36;;;;;;;13.50;3.78;;;;;;;;;;5054506;28;20054;-79
2022/12/31 05:14:04;;;;;;;18.33;4.15;;;;;;;;;;5057074;28;20045;-80
2022/12/31 05:16:38;;;;;;;15.55;4.25;;;;;;;;;;5060184;28;20076;-81
2022/12/31 05:19:08;;;;;;;21.40;4.20;;;;;;;;;;5054768;28;20050;-81
2022/12/31 05:21:35;;;;;;;22.17;4.78;;;;;;;;;;5054234;28;20100;-81
2022/12/31 05:24:03;;;;;;;14.70;3.67;;;;;;;;;;5051422;28;20048;-81
2022/12/31 05:26:30;;;;;;;13.63;3.70;;;;;;;;;;5048164;28;20073;-80
2022/12/31 05:28:59;;;;;;;13.95;3.22;;;;;;;;;;5054361;28;20443;-81
2022/12/31 05:31:26;;;;;;;7.10;2.83;;;;;;;;;;5050982;28;20084;-80
2022/12/31 05:33:53;;;;;;;13.38;3.40;;;;;;;;;;5050315;28;20054;-81
2022/12/31 05:36:20;;;;;;;17.67;3.53;;;;;;;;;;5051730;28;20077;-80
2022/12/31 05:38:50;;;;;;;14.27;3.38;;;;;;;;;;5053293;28;20053;-81
